createdAt,value
2023-01-04T00:01:20.559Z,101873.66
2023-01-04T00:06:22.634Z,101873.41
2023-01-04T00:11:25.371Z,101877.38
2023-01-04T00:16:29.011Z,101878.63
2023-01-04T00:21:31.906Z,101878.38
2023-01-04T00:26:35.519Z,101889.50
2023-01-04T00:31:37.576Z,101878.88
2023-01-04T00:36:39.635Z,101882.97
2023-01-04T00:42:04.238Z,101900.97
2023-01-04T00:47:06.293Z,101884.75
2023-01-04T00:52:08.811Z,101893.19
2023-01-04T00:57:10.740Z,101885.16
2023-01-04T01:02:12.863Z,101888.50
2023-01-04T01:07:15.084Z,101889.81
2023-01-04T01:12:17.087Z,101892.34
2023-01-04T01:17:19.128Z,101886.94
2023-01-04T01:22:21.077Z,101894.63
2023-01-04T01:27:23.150Z,101887.66
2023-01-04T01:32:25.132Z,101895.25
2023-01-04T01:37:27.200Z,101898.53
2023-01-04T01:42:29.223Z,101889.44
2023-01-04T01:47:47.923Z,101881.53
2023-01-04T01:52:51.086Z,101880.38
2023-01-04T01:57:54.925Z,101885.09
2023-01-04T02:03:00.062Z,101882.13
2023-01-04T02:08:04.370Z,101877.47
2023-01-04T02:13:11.018Z,101854.66
2023-01-04T02:18:21.030Z,101854.16
2023-01-04T02:23:41.908Z,101843.44
2023-01-04T02:28:59.146Z,101834.59
2023-01-04T02:34:13.276Z,101842.44
2023-01-04T02:39:37.347Z,101833.25
2023-01-04T02:44:54.446Z,101819.03
2023-01-04T02:50:14.820Z,101817.88
2023-01-04T02:55:16.852Z,101823.56
2023-01-04T03:00:57.330Z,101818.97
2023-01-04T03:06:17.648Z,101804.75
2023-01-04T03:11:38.644Z,101809.78
2023-01-04T03:16:44.452Z,101793.81
2023-01-04T03:21:46.951Z,101783.19
2023-01-04T03:27:14.060Z,101776.97
2023-01-04T03:32:42.278Z,101777.53
2023-01-04T03:39:02.460Z,101757.34
2023-01-04T03:44:28.892Z,101763.03
2023-01-04T03:49:46.622Z,101755.09
2023-01-04T03:54:50.226Z,101763.56
2023-01-04T04:00:02.071Z,101754.50
2023-01-04T04:05:22.936Z,101753.50
2023-01-04T04:10:25.228Z,101745.50
2023-01-04T04:15:27.211Z,101738.28
2023-01-04T04:20:29.166Z,101738.19
2023-01-04T04:25:31.413Z,101737.94
2023-01-04T04:30:33.350Z,101741.16
2023-01-04T04:35:35.295Z,101735.78
2023-01-04T04:40:57.906Z,101735.59
2023-01-04T04:46:00.348Z,101728.47
2023-01-04T04:51:02.384Z,101726.69
2023-01-04T04:56:04.600Z,101731.72
2023-01-04T05:01:07.332Z,101717.69
2023-01-04T05:06:09.532Z,101695.00
2023-01-04T05:11:13.116Z,101692.31
2023-01-04T05:16:15.146Z,101676.56
2023-01-04T05:21:20.085Z,101672.16
2023-01-04T05:26:22.475Z,101660.84
2023-01-04T05:31:25.916Z,101650.31
2023-01-04T05:36:27.970Z,101641.50
2023-01-04T05:41:48.536Z,101643.19
2023-01-04T05:46:50.540Z,101631.78
2023-01-04T05:51:52.515Z,101622.06
2023-01-04T05:56:54.500Z,101615.13
2023-01-04T06:01:56.668Z,101616.84
2023-01-04T06:06:58.673Z,101605.44
2023-01-04T06:12:00.680Z,101599.22
2023-01-04T06:17:02.722Z,101593.97
2023-01-04T06:22:05.018Z,101586.13
2023-01-04T06:27:06.945Z,101579.22
2023-01-04T06:32:09.039Z,101592.25
2023-01-04T06:37:11.165Z,101582.72
2023-01-04T06:42:31.890Z,101613.25
2023-01-04T06:47:33.794Z,101591.41
2023-01-04T06:52:36.241Z,101571.53
2023-01-04T06:57:38.799Z,101554.09
2023-01-04T07:03:13.683Z,101567.22
2023-01-04T07:08:07.966Z,101565.59
2023-01-04T07:13:11.055Z,101559.56
2023-01-04T07:18:13.112Z,101551.72
2023-01-04T07:23:15.213Z,101539.75
2023-01-04T07:28:37.204Z,101554.59
2023-01-04T07:33:39.258Z,101547.75
2023-01-04T07:38:41.311Z,101527.88
2023-01-04T07:43:43.358Z,101525.53
2023-01-04T07:48:45.603Z,101510.13
2023-01-04T07:53:47.735Z,101506.16
2023-01-04T07:58:49.926Z,101498.75
2023-01-04T08:03:52.705Z,101499.16
2023-01-04T08:08:54.845Z,101479.59
2023-01-04T08:13:56.920Z,101464.34
2023-01-04T08:19:01.006Z,101451.78
2023-01-04T08:24:03.801Z,101446.22
2023-01-04T08:29:05.856Z,101432.63
2023-01-04T08:34:09.830Z,101420.84
2023-01-04T08:39:11.908Z,101432.69
2023-01-04T08:44:13.935Z,101410.69
2023-01-04T08:49:16.777Z,101410.41
2023-01-04T08:54:18.873Z,101410.94
2023-01-04T08:59:20.959Z,101404.59
2023-01-04T09:04:23.046Z,101387.75
2023-01-04T09:09:25.040Z,101388.47
2023-01-04T09:14:27.190Z,101382.16
2023-01-04T09:19:29.350Z,101380.19
2023-01-04T09:24:33.400Z,101371.59
2023-01-04T09:29:36.986Z,101369.66
2023-01-04T09:34:40.193Z,101334.47
2023-01-04T09:39:42.414Z,101298.44
2023-01-04T09:50:31.163Z,101251.13
2023-01-04T09:55:41.556Z,101223.91
2023-01-04T10:00:49.198Z,101215.69
2023-01-04T10:05:54.444Z,101202.09
2023-01-04T10:11:05.369Z,101184.06
2023-01-04T10:22:16.620Z,101146.31
2023-01-04T10:27:43.246Z,101138.88
2023-01-04T10:32:50.334Z,101129.69
2023-01-04T10:37:58.305Z,101121.25
2023-01-04T10:43:02.919Z,101094.50
2023-01-04T10:48:32.677Z,101082.81
2023-01-04T10:53:54.684Z,101045.25
2023-01-04T10:59:09.869Z,101031.44
2023-01-04T11:04:19.071Z,101016.84
2023-01-04T11:09:34.761Z,101009.00
2023-01-04T11:14:37.654Z,101001.53
2023-01-04T11:19:41.137Z,100997.69
2023-01-04T11:25:07.639Z,100992.78
2023-01-04T11:30:16.563Z,100953.25
2023-01-04T11:35:42.563Z,100951.91
2023-01-04T11:41:01.166Z,100918.66
2023-01-04T11:46:19.268Z,100908.16
2023-01-04T11:51:27.118Z,100887.22
2023-01-04T11:56:31.163Z,100879.56
2023-01-04T12:01:57.804Z,100858.25
2023-01-04T12:07:05.644Z,100845.53
2023-01-04T12:12:12.381Z,100833.47
2023-01-04T12:17:26.473Z,100831.81
2023-01-04T12:22:40.039Z,100804.94
2023-01-04T12:27:51.903Z,100804.00
2023-01-04T12:32:54.009Z,100801.59
2023-01-04T12:37:56.068Z,100764.91
2023-01-04T12:43:16.192Z,100762.34
2023-01-04T12:48:48.926Z,100728.19
2023-01-04T12:53:59.671Z,100732.53
2023-01-04T12:59:25.095Z,100714.22
2023-01-04T13:04:30.973Z,100696.66
2023-01-04T13:09:36.311Z,100687.72
2023-01-04T13:14:51.472Z,100684.91
2023-01-04T13:19:54.034Z,100618.88
2023-01-04T13:24:58.237Z,100634.00
2023-01-04T13:30:00.444Z,100603.25
2023-01-04T13:35:14.026Z,100590.13
2023-01-04T13:40:19.484Z,100584.09
2023-01-04T13:45:41.615Z,100573.53
2023-01-04T13:50:47.594Z,100557.00
2023-01-04T13:56:03.681Z,100544.75
2023-01-04T14:01:07.791Z,100540.66
2023-01-04T14:06:09.881Z,100540.09
2023-01-04T14:11:41.369Z,100533.25
2023-01-04T14:16:43.716Z,100520.94
2023-01-04T14:21:45.789Z,100499.09
2023-01-04T14:26:47.924Z,100484.53
2023-01-04T14:31:51.898Z,100468.38
2023-01-04T14:37:04.051Z,100457.69
2023-01-04T14:42:23.794Z,100442.03
2023-01-04T14:47:25.924Z,100421.78
2023-01-04T14:52:27.966Z,100416.41
2023-01-04T14:57:29.950Z,100412.84
2023-01-04T15:02:34.237Z,100396.31
2023-01-04T15:07:40.452Z,100393.41
2023-01-04T15:12:42.473Z,100364.91
2023-01-04T15:17:44.558Z,100360.31
2023-01-04T15:22:47.104Z,100348.19
2023-01-04T15:27:49.913Z,100332.78
2023-01-04T15:32:51.974Z,100321.34
2023-01-04T15:37:54.065Z,100312.44
2023-01-04T15:43:00.726Z,100292.25
2023-01-04T15:48:18.089Z,100274.97
2023-01-04T15:53:20.760Z,100260.63
2023-01-04T15:58:23.310Z,100248.16
2023-01-04T16:03:25.515Z,100253.50
2023-01-04T16:08:28.851Z,100248.94
2023-01-04T16:13:30.892Z,100229.84
2023-01-04T16:18:33.157Z,100190.28
2023-01-04T16:23:37.797Z,100209.38
2023-01-04T16:28:40.691Z,100189.81
2023-01-04T16:33:56.397Z,100175.72
2023-01-04T16:50:01.331Z,100135.47
2023-01-04T16:55:03.658Z,100131.16
2023-01-04T17:00:09.053Z,100126.09
2023-01-04T17:05:14.184Z,100109.09
2023-01-04T17:10:27.594Z,100102.09
2023-01-04T17:15:42.874Z,100094.69
2023-01-04T17:21:31.918Z,100083.66
2023-01-04T17:27:04.170Z,100072.88
2023-01-04T17:32:14.698Z,100058.41
2023-01-04T17:37:18.202Z,100047.59
2023-01-04T17:42:20.573Z,100032.72
2023-01-04T17:47:23.135Z,100030.09
2023-01-04T17:52:30.987Z,100015.19
2023-01-04T17:57:35.617Z,100000.09
2023-01-04T18:02:56.448Z,99991.25
2023-01-04T18:07:59.229Z,99971.28
2023-01-04T18:13:02.137Z,99966.84
2023-01-04T18:18:08.313Z,99954.13
2023-01-04T18:23:19.042Z,99950.97
2023-01-04T18:28:27.893Z,99947.81
2023-01-04T18:33:32.770Z,99936.50
2023-01-04T18:38:37.041Z,99927.84
2023-01-04T18:43:45.669Z,99927.16
2023-01-04T18:49:01.764Z,99915.00
2023-01-04T18:54:07.429Z,99925.50
2023-01-04T18:59:14.749Z,99898.25
2023-01-04T19:04:19.804Z,99900.00
2023-01-04T19:09:22.407Z,99901.69
2023-01-04T19:14:25.732Z,99873.19
2023-01-04T19:24:48.411Z,99873.81
2023-01-04T19:35:09.870Z,99857.94
2023-01-04T19:40:13.009Z,99869.25
2023-01-04T19:45:20.149Z,99847.91
2023-01-04T19:50:24.415Z,99846.25
2023-01-04T19:55:30.380Z,99840.81
2023-01-04T20:00:34.090Z,99841.53
2023-01-04T20:05:37.129Z,99823.47
2023-01-04T20:10:43.283Z,99826.16
2023-01-04T20:16:08.832Z,99825.22
2023-01-04T20:21:35.946Z,99818.94
2023-01-04T20:26:42.663Z,99804.59
2023-01-04T20:32:13.134Z,99795.03
2023-01-04T20:37:36.124Z,99786.94
2023-01-04T20:48:36.488Z,99777.91
2023-01-04T20:53:52.227Z,99765.03
2023-01-04T20:58:57.991Z,99767.56
2023-01-04T21:04:06.981Z,99743.63
2023-01-04T21:09:13.143Z,99736.16
2023-01-04T21:14:15.673Z,99736.94
2023-01-04T21:19:18.491Z,99719.34
2023-01-04T21:24:21.225Z,99713.56
2023-01-04T21:29:30.467Z,99706.75
2023-01-04T21:34:35.654Z,99690.00
2023-01-04T21:39:42.875Z,99686.38
2023-01-04T21:44:51.152Z,99690.81
2023-01-04T21:49:57.439Z,99663.84
2023-01-04T21:55:03.798Z,99664.19
2023-01-04T22:00:12.285Z,99640.84
2023-01-04T22:05:15.805Z,99645.88
2023-01-04T22:10:18.120Z,99643.91
2023-01-04T22:15:20.128Z,99635.25
2023-01-04T22:20:23.707Z,99614.69
2023-01-04T22:25:28.231Z,99626.47
2023-01-04T22:30:32.471Z,99625.78
2023-01-04T22:35:34.712Z,99622.25
2023-01-04T22:40:42.843Z,99597.63
2023-01-04T22:45:46.298Z,99609.94
2023-01-04T22:50:48.434Z,99615.03
2023-01-04T23:01:12.929Z,99586.47
2023-01-04T23:06:15.032Z,99575.19
2023-01-04T23:11:19.140Z,99577.03
2023-01-04T23:16:26.188Z,99574.34
2023-01-04T23:21:34.059Z,99569.13
2023-01-04T23:26:36.644Z,99544.66
2023-01-04T23:31:39.519Z,99537.66
2023-01-04T23:36:42.880Z,99527.41
2023-01-04T23:41:45.399Z,99517.25
2023-01-04T23:46:53.451Z,99523.84
2023-01-04T23:51:55.876Z,99517.50
2023-01-04T23:56:58.315Z,99509.13
